Time;durP1;ratioP1;P1;durP2;ratioP2;P2;SDS_P1;SDS_P2;PMS_P1;PMS_P2;Temp;Humidity;BMP_temperature;BMP_pressure;BME280_temperature;BME280_humidity;BME280_pressure;Samples;Min_cycle;Max_cycle;Signal;HPM_P1;HPM_P2
2021/06/12 00:00:04;;;;;;;10.00;7.15;;;;;;;;;;5042850;28;20157;-78
2021/06/12 00:02:49;;;;;;;9.63;6.78;;;;;;;;;;5040855;28;20036;-78
2021/06/12 00:05:35;;;;;;;9.13;7.22;;;;;;;;;;5047880;28;20029;-78
2021/06/12 00:08:20;;;;;;;7.75;6.85;;;;;;;;;;5048014;28;20020;-76
2021/06/12 00:11:05;;;;;;;11.00;7.18;;;;;;;;;;5045771;28;20021;-77
2021/06/12 00:13:51;;;;;;;8.80;6.78;;;;;;;;;;5023680;28;20055;-79
2021/06/12 00:16:36;;;;;;;10.75;6.90;;;;;;;;;;5056266;28;20048;-77
2021/06/12 00:19:21;;;;;;;9.00;7.50;;;;;;;;;;5043940;28;20133;-76
2021/06/12 00:22:06;;;;;;;10.95;7.50;;;;;;;;;;5032332;28;20082;-76
2021/06/12 00:24:52;;;;;;;9.10;7.05;;;;;;;;;;5032288;28;20040;-76
2021/06/12 00:27:39;;;;;;;10.63;6.85;;;;;;;;;;5016854;28;20120;-77
2021/06/12 00:30:24;;;;;;;7.72;6.85;;;;;;;;;;5032608;28;20029;-79
2021/06/12 00:33:10;;;;;;;9.82;7.32;;;;;;;;;;5037887;28;20025;-78
2021/06/12 00:35:55;;;;;;;9.02;6.82;;;;;;;;;;5023408;28;20431;-77
2021/06/12 00:38:40;;;;;;;12.73;7.25;;;;;;;;;;5028589;28;20541;-78
2021/06/12 00:41:25;;;;;;;8.45;7.40;;;;;;;;;;5032787;28;20030;-78
2021/06/12 00:44:11;;;;;;;9.85;7.68;;;;;;;;;;5029177;28;20043;-78
2021/06/12 00:46:56;;;;;;;10.25;7.82;;;;;;;;;;5029419;28;20025;-78
2021/06/12 00:49:41;;;;;;;11.95;7.70;;;;;;;;;;5027602;28;20108;-77
2021/06/12 00:52:26;;;;;;;10.90;8.57;;;;;;;;;;5042808;28;20048;-77
2021/06/12 00:55:14;;;;;;;10.23;7.85;;;;;;;;;;5025270;28;20057;-77
2021/06/12 00:57:59;;;;;;;12.32;8.23;;;;;;;;;;5041606;28;20040;-76
2021/06/12 01:00:44;;;;;;;8.98;7.07;;;;;;;;;;5027793;28;20385;-75
2021/06/12 01:03:30;;;;;;;10.45;7.65;;;;;;;;;;5030496;28;20025;-76
2021/06/12 01:06:16;;;;;;;9.98;7.78;;;;;;;;;;5030875;28;20029;-77
2021/06/12 01:09:02;;;;;;;9.13;7.38;;;;;;;;;;5029751;28;20036;-76
2021/06/12 01:12:01;;;;;;;10.30;8.25;;;;;;;;;;5023134;28;20027;-76
2021/06/12 01:14:50;;;;;;;10.50;7.80;;;;;;;;;;5042723;28;20096;-78
2021/06/12 01:17:47;;;;;;;11.48;8.13;;;;;;;;;;5025557;28;20107;-76
2021/06/12 01:20:47;;;;;;;10.40;8.48;;;;;;;;;;5027311;28;20051;-77
2021/06/12 01:23:51;;;;;;;14.48;8.18;;;;;;;;;;5034894;28;20369;-77
2021/06/12 01:26:36;;;;;;;13.23;7.30;;;;;;;;;;5042415;28;20155;-77
2021/06/12 01:29:25;;;;;;;10.85;7.93;;;;;;;;;;5049724;28;20067;-79
2021/06/12 01:32:11;;;;;;;10.75;7.90;;;;;;;;;;5040391;28;20086;-77
2021/06/12 01:34:57;;;;;;;11.05;8.02;;;;;;;;;;5043018;28;20130;-78
2021/06/12 01:37:44;;;;;;;11.40;8.25;;;;;;;;;;5037366;28;20156;-77
2021/06/12 01:40:31;;;;;;;9.38;8.15;;;;;;;;;;5043751;28;20033;-76
2021/06/12 01:43:18;;;;;;;9.45;8.20;;;;;;;;;;5050944;28;20115;-77
2021/06/12 01:46:05;;;;;;;19.92;9.90;;;;;;;;;;5045816;28;20190;-77
2021/06/12 01:48:51;;;;;;;8.82;7.90;;;;;;;;;;5045464;28;20025;-77
2021/06/12 01:51:36;;;;;;;10.13;7.97;;;;;;;;;;5051284;28;20027;-77
2021/06/12 01:54:22;;;;;;;10.13;8.25;;;;;;;;;;5042810;28;20028;-77
2021/06/12 01:57:08;;;;;;;11.45;8.18;;;;;;;;;;5048726;28;20495;-77
2021/06/12 01:59:54;;;;;;;11.10;8.73;;;;;;;;;;5052418;28;20035;-77
2021/06/12 02:02:43;;;;;;;9.57;7.97;;;;;;;;;;5047454;28;20387;-76
2021/06/12 02:05:28;;;;;;;11.13;9.07;;;;;;;;;;5042968;28;20021;-77
2021/06/12 02:08:14;;;;;;;13.35;8.40;;;;;;;;;;5043971;28;20037;-77
2021/06/12 02:10:59;;;;;;;11.90;9.13;;;;;;;;;;5043968;28;20543;-77
2021/06/12 02:13:46;;;;;;;10.70;9.60;;;;;;;;;;5052593;28;20387;-77
2021/06/12 02:16:31;;;;;;;12.50;8.10;;;;;;;;;;5048010;28;20032;-77
2021/06/12 02:19:16;;;;;;;9.63;8.63;;;;;;;;;;5018194;28;20045;-77
2021/06/12 02:22:02;;;;;;;11.05;8.15;;;;;;;;;;5046509;28;20017;-77
2021/06/12 02:24:48;;;;;;;11.35;8.35;;;;;;;;;;5038736;28;20124;-76
2021/06/12 02:27:34;;;;;;;11.30;8.85;;;;;;;;;;5046605;28;20056;-77
2021/06/12 02:30:21;;;;;;;10.38;9.07;;;;;;;;;;5041428;28;20033;-77
2021/06/12 02:33:08;;;;;;;12.25;9.40;;;;;;;;;;5049689;28;20059;-77
2021/06/12 02:35:53;;;;;;;10.45;9.35;;;;;;;;;;5044167;28;20449;-78
2021/06/12 02:38:39;;;;;;;10.30;8.18;;;;;;;;;;5042774;28;20021;-77
2021/06/12 02:41:24;;;;;;;10.80;8.02;;;;;;;;;;5045047;28;20028;-77
2021/06/12 02:44:09;;;;;;;9.57;8.50;;;;;;;;;;5041951;28;20113;-77
2021/06/12 02:46:59;;;;;;;10.60;8.88;;;;;;;;;;5050277;28;20032;-77
2021/06/12 02:49:45;;;;;;;11.20;8.80;;;;;;;;;;5044645;28;20025;-77
2021/06/12 02:52:30;;;;;;;11.48;9.52;;;;;;;;;;5046133;28;20499;-78
2021/06/12 02:55:17;;;;;;;14.07;10.05;;;;;;;;;;5021794;28;20120;-77
2021/06/12 02:58:02;;;;;;;11.80;10.52;;;;;;;;;;5047340;28;20055;-77
2021/06/12 03:00:48;;;;;;;12.35;9.02;;;;;;;;;;5034562;28;20040;-77
2021/06/12 03:03:34;;;;;;;9.75;8.55;;;;;;;;;;5045903;28;20162;-78
2021/06/12 03:06:20;;;;;;;11.52;9.88;;;;;;;;;;5057785;28;20017;-76
2021/06/12 03:09:06;;;;;;;12.40;9.05;;;;;;;;;;5046791;28;20016;-77
2021/06/12 03:11:53;;;;;;;12.15;9.50;;;;;;;;;;5036259;28;20039;-76
2021/06/12 03:14:40;;;;;;;10.90;9.20;;;;;;;;;;5041840;28;20043;-77
2021/06/12 03:17:26;;;;;;;10.75;9.43;;;;;;;;;;5043441;28;20041;-76
2021/06/12 03:20:12;;;;;;;12.07;9.13;;;;;;;;;;5033253;28;20053;-76
2021/06/12 03:23:02;;;;;;;10.40;9.20;;;;;;;;;;5024294;28;20029;-76
2021/06/12 03:25:47;;;;;;;11.05;8.77;;;;;;;;;;5023914;28;20056;-77
2021/06/12 03:28:32;;;;;;;12.70;9.30;;;;;;;;;;5037046;28;20025;-77
2021/06/12 03:31:18;;;;;;;11.10;9.27;;;;;;;;;;5025395;28;20029;-77
2021/06/12 03:34:04;;;;;;;11.93;8.82;;;;;;;;;;5031242;28;20037;-77
2021/06/12 03:36:50;;;;;;;13.48;9.55;;;;;;;;;;5022689;28;20021;-76
2021/06/12 03:39:35;;;;;;;9.77;8.50;;;;;;;;;;5031047;28;20048;-77
2021/06/12 03:42:21;;;;;;;10.63;9.52;;;;;;;;;;5030213;28;20044;-76
2021/06/12 03:45:08;;;;;;;11.32;9.00;;;;;;;;;;5036684;28;20067;-77
2021/06/12 03:47:53;;;;;;;14.52;9.25;;;;;;;;;;5028902;28;20017;-77
2021/06/12 03:50:39;;;;;;;15.57;10.75;;;;;;;;;;5023896;28;20036;-76
2021/06/12 03:53:30;;;;;;;11.00;9.55;;;;;;;;;;5035700;28;20043;-76
2021/06/12 03:56:16;;;;;;;10.23;8.68;;;;;;;;;;5037043;28;20448;-76
2021/06/12 03:59:02;;;;;;;11.25;8.85;;;;;;;;;;5026139;28;20021;-77
2021/06/12 04:01:47;;;;;;;12.40;8.52;;;;;;;;;;5033999;28;20056;-76
2021/06/12 04:04:32;;;;;;;10.52;9.43;;;;;;;;;;5034363;28;20495;-77
2021/06/12 04:07:18;;;;;;;11.32;9.63;;;;;;;;;;5016232;28;20455;-76
2021/06/12 04:10:04;;;;;;;11.80;8.93;;;;;;;;;;5033354;28;20021;-77
2021/06/12 04:12:49;;;;;;;12.20;9.45;;;;;;;;;;5029080;28;20024;-77
2021/06/12 04:15:34;;;;;;;11.25;8.35;;;;;;;;;;5032335;28;20132;-77
2021/06/12 04:18:20;;;;;;;10.77;8.40;;;;;;;;;;5028116;28;20079;-76
2021/06/12 04:21:05;;;;;;;12.00;8.32;;;;;;;;;;5046571;28;20112;-77
2021/06/12 04:23:50;;;;;;;13.02;8.88;;;;;;;;;;5039554;28;20115;-77
2021/06/12 04:26:36;;;;;;;12.35;8.75;;;;;;;;;;5063206;28;20404;-76
2021/06/12 04:29:21;;;;;;;9.50;8.30;;;;;;;;;;5048698;28;20166;-77
2021/06/12 04:32:06;;;;;;;10.40;8.80;;;;;;;;;;5049430;28;20017;-77
2021/06/12 04:34:51;;;;;;;11.35;9.27;;;;;;;;;;5053837;28;20017;-77
2021/06/12 04:37:37;;;;;;;13.88;8.73;;;;;;;;;;5046715;28;20028;-76
2021/06/12 04:40:22;;;;;;;10.98;9.13;;;;;;;;;;5052208;28;20017;-78
2021/06/12 04:43:08;;;;;;;10.25;8.98;;;;;;;;;;5045980;28;20017;-76
2021/06/12 04:45:53;;;;;;;12.88;9.38;;;;;;;;;;5053526;28;20040;-76
2021/06/12 04:48:38;;;;;;;13.90;9.05;;;;;;;;;;5049963;28;20071;-77
2021/06/12 04:51:23;;;;;;;10.13;8.52;;;;;;;;;;5044643;28;20113;-76
2021/06/12 04:54:09;;;;;;;10.48;9.25;;;;;;;;;;5055661;28;20059;-77
2021/06/12 04:56:54;;;;;;;11.68;8.18;;;;;;;;;;5054908;28;20285;-77
2021/06/12 04:59:39;;;;;;;10.75;8.75;;;;;;;;;;5042930;28;20028;-77
2021/06/12 05:02:24;;;;;;;11.98;8.02;;;;;;;;;;5042986;28;20435;-77
2021/06/12 05:05:10;;;;;;;10.93;8.45;;;;;;;;;;5043874;28;20078;-76
2021/06/12 05:07:55;;;;;;;12.20;8.20;;;;;;;;;;5041126;28;20025;-76
2021/06/12 05:10:41;;;;;;;9.70;8.18;;;;;;;;;;5055792;28;20037;-77
2021/06/12 05:13:26;;;;;;;14.20;8.02;;;;;;;;;;5051389;28;20029;-77
2021/06/12 05:16:12;;;;;;;9.70;7.72;;;;;;;;;;5044136;28;20052;-77
2021/06/12 05:18:57;;;;;;;11.15;7.78;;;;;;;;;;5043654;28;20403;-77
2021/06/12 05:21:44;;;;;;;10.57;7.75;;;;;;;;;;5049777;28;20463;-77
2021/06/12 05:24:30;;;;;;;11.05;7.75;;;;;;;;;;5057666;28;20094;-77
2021/06/12 05:27:15;;;;;;;11.40;8.13;;;;;;;;;;5050884;28;20020;-77
2021/06/12 05:30:00;;;;;;;9.63;7.50;;;;;;;;;;5059320;28;20028;-77
2021/06/12 05:32:45;;;;;;;11.40;8.20;;;;;;;;;;5055246;28;20034;-77
2021/06/12 05:35:31;;;;;;;9.05;7.57;;;;;;;;;;5059657;28;20028;-78
2021/06/12 05:38:16;;;;;;;9.90;7.70;;;;;;;;;;5053259;28;20421;-76
2021/06/12 05:41:02;;;;;;;10.10;7.82;;;;;;;;;;5050400;28;20477;-77
2021/06/12 05:43:47;;;;;;;8.98;7.75;;;;;;;;;;5047671;28;20493;-77
2021/06/12 05:46:32;;;;;;;9.85;7.07;;;;;;;;;;5054110;28;20031;-76
2021/06/12 05:49:18;;;;;;;8.40;7.53;;;;;;;;;;5053422;28;20116;-76
2021/06/12 05:52:03;;;;;;;9.32;7.43;;;;;;;;;;5045652;28;20098;-77
2021/06/12 05:54:49;;;;;;;9.98;7.38;;;;;;;;;;5054510;28;20029;-77
2021/06/12 05:57:34;;;;;;;11.80;7.63;;;;;;;;;;5055848;28;20248;-77
2021/06/12 06:00:20;;;;;;;8.43;7.43;;;;;;;;;;5053373;28;20037;-77
2021/06/12 06:03:05;;;;;;;10.23;7.60;;;;;;;;;;5046963;28;20115;-77
2021/06/12 06:05:50;;;;;;;9.43;7.47;;;;;;;;;;5052543;28;20028;-78
2021/06/12 06:08:36;;;;;;;9.18;7.25;;;;;;;;;;5052387;28;20031;-78
2021/06/12 06:11:21;;;;;;;8.95;7.47;;;;;;;;;;5053701;28;20630;-78
2021/06/12 06:14:06;;;;;;;8.23;7.13;;;;;;;;;;5058184;28;20021;-78
2021/06/12 06:16:52;;;;;;;8.07;6.82;;;;;;;;;;5053607;28;20035;-77
2021/06/12 06:19:37;;;;;;;8.23;7.05;;;;;;;;;;5048225;28;20399;-77
2021/06/12 06:22:22;;;;;;;8.27;6.88;;;;;;;;;;5049721;28;20439;-77
2021/06/12 06:25:08;;;;;;;9.38;6.50;;;;;;;;;;5059498;28;20078;-78
2021/06/12 06:27:53;;;;;;;6.93;6.05;;;;;;;;;;5051692;28;20135;-77
2021/06/12 06:30:38;;;;;;;7.60;6.35;;;;;;;;;;5050910;28;20447;-78
2021/06/12 06:33:24;;;;;;;9.25;6.38;;;;;;;;;;5055425;28;20423;-77
2021/06/12 06:36:10;;;;;;;7.63;6.00;;;;;;;;;;5060054;28;20036;-78
2021/06/12 06:38:55;;;;;;;9.35;6.55;;;;;;;;;;5049356;28;20082;-78
2021/06/12 06:41:40;;;;;;;7.55;6.00;;;;;;;;;;5057955;28;20079;-79
2021/06/12 06:44:25;;;;;;;8.52;5.60;;;;;;;;;;5050284;28;20029;-77
2021/06/12 06:47:11;;;;;;;13.77;12.05;;;;;;;;;;5054746;28;20025;-78
2021/06/12 06:49:56;;;;;;;10.30;7.95;;;;;;;;;;5048158;28;20107;-76
2021/06/12 06:52:41;;;;;;;6.65;6.03;;;;;;;;;;5056962;28;20032;-76
2021/06/12 06:55:27;;;;;;;8.65;5.55;;;;;;;;;;5051141;28;20119;-78
2021/06/12 06:58:12;;;;;;;6.28;5.22;;;;;;;;;;5052883;28;20502;-77
2021/06/12 07:00:58;;;;;;;7.32;6.35;;;;;;;;;;5051049;28;20032;-77
2021/06/12 07:03:43;;;;;;;6.72;5.28;;;;;;;;;;5050906;28;20056;-77
2021/06/12 07:06:28;;;;;;;9.70;5.57;;;;;;;;;;5044290;28;20021;-77
2021/06/12 07:09:13;;;;;;;10.85;8.52;;;;;;;;;;5057264;28;20028;-77
2021/06/12 07:12:02;;;;;;;7.57;6.18;;;;;;;;;;5053457;28;20099;-83
2021/06/12 07:14:47;;;;;;;8.07;6.35;;;;;;;;;;5058524;28;20153;-77
2021/06/12 07:17:32;;;;;;;8.77;5.38;;;;;;;;;;5056689;28;20027;-79
2021/06/12 07:20:18;;;;;;;7.50;5.55;;;;;;;;;;5049796;28;20064;-82
2021/06/12 07:23:03;;;;;;;8.98;5.35;;;;;;;;;;5049099;28;20735;-81
2021/06/12 07:25:48;;;;;;;7.50;5.20;;;;;;;;;;5054397;28;20067;-80
2021/06/12 07:28:33;;;;;;;8.35;4.97;;;;;;;;;;5053743;28;20024;-81
2021/06/12 07:31:18;;;;;;;6.78;5.22;;;;;;;;;;5050115;28;20075;-80
2021/06/12 07:34:04;;;;;;;7.13;4.82;;;;;;;;;;5052329;28;20020;-81
2021/06/12 07:36:50;;;;;;;5.43;4.22;;;;;;;;;;5048919;28;20596;-85
2021/06/12 07:39:35;;;;;;;6.38;4.72;;;;;;;;;;5056828;28;20025;-83
2021/06/12 07:42:20;;;;;;;7.50;4.25;;;;;;;;;;5058064;28;20056;-84
2021/06/12 07:45:06;;;;;;;5.93;4.60;;;;;;;;;;5061570;28;20028;-85
2021/06/12 07:47:51;;;;;;;6.38;4.28;;;;;;;;;;5051426;28;20025;-89
2021/06/12 07:50:37;;;;;;;4.55;3.50;;;;;;;;;;5057933;28;20056;-88
2021/06/12 07:53:22;;;;;;;8.63;6.03;;;;;;;;;;5054055;28;20036;-88
2021/06/12 07:56:07;;;;;;;5.55;4.47;;;;;;;;;;5061925;28;20035;-87
2021/06/12 07:58:53;;;;;;;4.18;3.72;;;;;;;;;;5038232;28;20024;-85
2021/06/12 08:01:38;;;;;;;8.52;3.40;;;;;;;;;;5039309;28;20051;-89
2021/06/12 08:04:24;;;;;;;5.40;2.95;;;;;;;;;;5053131;28;20020;-88
2021/06/12 08:07:09;;;;;;;6.68;3.10;;;;;;;;;;5066390;28;20035;-89
2021/06/12 08:09:55;;;;;;;5.60;2.90;;;;;;;;;;5056926;28;20132;-88
2021/06/12 08:12:41;;;;;;;4.07;2.83;;;;;;;;;;5058197;28;20115;-89
2021/06/12 08:15:26;;;;;;;4.47;3.08;;;;;;;;;;5053342;28;20028;-88
2021/06/12 08:18:11;;;;;;;5.43;2.60;;;;;;;;;;5055847;28;20032;-88
2021/06/12 08:20:56;;;;;;;15.80;9.25;;;;;;;;;;5044539;28;20067;-87
2021/06/12 08:23:41;;;;;;;5.07;4.38;;;;;;;;;;5051346;28;20039;-85
2021/06/12 08:26:27;;;;;;;5.50;3.08;;;;;;;;;;5060569;28;20423;-86
2021/06/12 08:29:12;;;;;;;6.53;4.90;;;;;;;;;;5051418;28;20020;-86
2021/06/12 08:31:57;;;;;;;3.53;2.65;;;;;;;;;;5063711;28;20066;-88
2021/06/12 08:34:43;;;;;;;6.55;3.08;;;;;;;;;;5042958;28;20086;-86
2021/06/12 08:37:28;;;;;;;7.18;2.70;;;;;;;;;;5057919;28;20106;-86
2021/06/12 08:40:13;;;;;;;4.15;2.90;;;;;;;;;;5057086;28;20029;-89
2021/06/12 08:42:59;;;;;;;5.15;3.53;;;;;;;;;;5037915;28;20028;-86
2021/06/12 08:45:44;;;;;;;6.70;3.60;;;;;;;;;;5057108;28;20043;-86
2021/06/12 08:48:30;;;;;;;5.03;3.70;;;;;;;;;;5040516;28;20019;-86
2021/06/12 08:51:15;;;;;;;7.90;3.97;;;;;;;;;;5058919;28;20029;-87
2021/06/12 08:54:00;;;;;;;5.78;4.00;;;;;;;;;;5032913;28;20086;-87
2021/06/12 08:56:46;;;;;;;6.43;4.03;;;;;;;;;;5058652;28;20127;-86
2021/06/12 08:59:35;;;;;;;8.10;4.35;;;;;;;;;;5057603;28;20059;-88
2021/06/12 09:02:20;;;;;;;6.32;4.50;;;;;;;;;;5052165;28;20033;-87
2021/06/12 09:05:05;;;;;;;7.80;4.30;;;;;;;;;;5057344;28;20063;-85
2021/06/12 09:08:04;;;;;;;7.47;4.20;;;;;;;;;;5057752;28;20048;-85
2021/06/12 09:10:49;;;;;;;;;;;;;;;;;;5053373;28;20119;-85
2021/06/12 09:13:38;;;;;;;8.55;4.18;;;;;;;;;;5060382;28;20243;-86
2021/06/12 09:16:24;;;;;;;5.10;3.73;;;;;;;;;;5039799;28;20024;-86
2021/06/12 09:19:11;;;;;;;5.53;3.90;;;;;;;;;;5051816;28;20020;-84
2021/06/12 09:21:58;;;;;;;6.25;3.58;;;;;;;;;;5062341;28;20161;-86
2021/06/12 09:24:45;;;;;;;5.22;3.13;;;;;;;;;;5061659;28;20028;-84
2021/06/12 09:27:30;;;;;;;7.85;2.90;;;;;;;;;;5057049;28;20086;-85
2021/06/12 09:30:16;;;;;;;5.05;2.30;;;;;;;;;;5053530;28;20047;-86
2021/06/12 09:33:02;;;;;;;2.80;2.53;;;;;;;;;;5037106;28;20024;-86
2021/06/12 09:35:47;;;;;;;4.60;2.28;;;;;;;;;;5059884;28;20030;-86
2021/06/12 09:38:33;;;;;;;5.28;2.00;;;;;;;;;;5051668;28;20494;-87
2021/06/12 09:41:22;;;;;;;3.63;2.33;;;;;;;;;;5057098;28;20394;-86
2021/06/12 09:44:08;;;;;;;7.53;2.58;;;;;;;;;;5059559;28;20031;-84
2021/06/12 09:46:53;;;;;;;2.83;2.20;;;;;;;;;;5051871;28;20078;-85
2021/06/12 09:49:39;;;;;;;3.83;2.58;;;;;;;;;;5053523;28;20024;-83
2021/06/12 09:52:24;;;;;;;5.65;2.55;;;;;;;;;;5049943;28;20122;-84
2021/06/12 09:55:19;;;;;;;3.05;2.10;;;;;;;;;;5059076;28;20047;-83
2021/06/12 09:58:05;;;;;;;3.33;2.10;;;;;;;;;;5052089;28;20035;-84
2021/06/12 10:00:51;;;;;;;2.70;2.00;;;;;;;;;;5060628;28;20020;-84
2021/06/12 10:03:36;;;;;;;3.75;2.03;;;;;;;;;;5058237;28;20025;-85
2021/06/12 10:06:25;;;;;;;2.83;2.28;;;;;;;;;;5056989;28;20012;-83
2021/06/12 10:09:10;;;;;;;2.88;2.03;;;;;;;;;;5055764;28;20096;-84
2021/06/12 10:11:56;;;;;;;3.50;2.28;;;;;;;;;;5049704;28;20033;-84
2021/06/12 10:14:42;;;;;;;3.33;2.70;;;;;;;;;;5060450;28;20028;-84
2021/06/12 10:17:28;;;;;;;4.15;2.35;;;;;;;;;;5037644;28;20245;-84
2021/06/12 10:20:14;;;;;;;4.93;2.33;;;;;;;;;;5041680;28;20151;-84
2021/06/12 10:23:01;;;;;;;4.00;2.53;;;;;;;;;;5024648;28;20029;-83
2021/06/12 10:25:46;;;;;;;3.15;2.40;;;;;;;;;;5026535;28;20100;-83
2021/06/12 10:28:31;;;;;;;3.95;2.63;;;;;;;;;;5025766;28;20073;-84
2021/06/12 10:31:19;;;;;;;2.95;2.22;;;;;;;;;;5021156;28;20047;-82
2021/06/12 10:34:05;;;;;;;2.90;2.20;;;;;;;;;;5033040;28;20084;-83
2021/06/12 10:36:58;;;;;;;4.55;2.20;;;;;;;;;;5014389;28;20071;-83
2021/06/12 10:39:43;;;;;;;3.17;2.85;;;;;;;;;;5026023;28;20045;-83
2021/06/12 10:42:28;;;;;;;4.95;3.10;;;;;;;;;;5034655;28;20395;-82
2021/06/12 10:45:13;;;;;;;5.55;2.83;;;;;;;;;;5026976;28;20103;-83
2021/06/12 10:47:59;;;;;;;4.13;2.25;;;;;;;;;;5023857;28;20029;-83
2021/06/12 10:50:44;;;;;;;3.03;2.50;;;;;;;;;;5025389;28;20053;-82
2021/06/12 10:53:33;;;;;;;3.60;2.70;;;;;;;;;;5032966;28;20362;-82
2021/06/12 10:56:41;;;;;;;7.25;2.25;;;;;;;;;;5017815;28;20025;-82
2021/06/12 10:59:33;;;;;;;3.45;2.17;;;;;;;;;;5012876;28;20061;-82
2021/06/12 11:02:27;;;;;;;3.63;2.45;;;;;;;;;;5019463;28;20021;-82
2021/06/12 11:05:25;;;;;;;2.83;2.15;;;;;;;;;;5034076;28;20103;-83
2021/06/12 11:08:14;;;;;;;3.00;2.08;;;;;;;;;;5028984;28;20045;-83
2021/06/12 11:11:20;;;;;;;4.68;2.13;;;;;;;;;;5025515;28;20115;-83
2021/06/12 11:14:20;;;;;;;3.63;2.22;;;;;;;;;;5027629;28;20771;-83
2021/06/12 11:17:06;;;;;;;3.63;2.13;;;;;;;;;;5002967;28;20033;-82
2021/06/12 11:19:54;;;;;;;6.63;3.10;;;;;;;;;;5026088;28;20484;-83
2021/06/12 11:23:01;;;;;;;3.20;2.27;;;;;;;;;;5029065;28;20026;-84
2021/06/12 11:25:48;;;;;;;5.05;2.20;;;;;;;;;;5034587;28;20029;-83
2021/06/12 11:28:34;;;;;;;3.83;2.17;;;;;;;;;;5022967;28;20029;-83
2021/06/12 11:31:29;;;;;;;3.85;2.47;;;;;;;;;;5020510;28;20039;-84
2021/06/12 11:34:25;;;;;;;3.25;2.33;;;;;;;;;;5020698;28;20500;-83
2021/06/12 11:37:15;;;;;;;2.60;2.10;;;;;;;;;;5026180;28;20053;-83
2021/06/12 11:40:02;;;;;;;5.30;3.30;;;;;;;;;;5029827;28;20029;-84
2021/06/12 11:42:49;;;;;;;3.38;2.55;;;;;;;;;;5026093;28;20120;-83
2021/06/12 11:45:35;;;;;;;3.17;2.35;;;;;;;;;;5034739;28;20026;-83
2021/06/12 11:48:21;;;;;;;3.60;2.58;;;;;;;;;;5014368;28;20114;-83
2021/06/12 11:51:13;;;;;;;3.45;2.00;;;;;;;;;;5024003;28;20152;-83
2021/06/12 11:54:17;;;;;;;5.15;2.03;;;;;;;;;;5027068;28;20096;-83
2021/06/12 11:57:03;;;;;;;2.42;2.10;;;;;;;;;;5031579;28;20056;-84
2021/06/12 11:59:48;;;;;;;5.03;2.45;;;;;;;;;;5020987;28;20024;-83
2021/06/12 12:02:33;;;;;;;4.93;2.40;;;;;;;;;;5023611;28;20028;-83
2021/06/12 12:05:19;;;;;;;4.63;2.28;;;;;;;;;;5035551;28;20036;-83
2021/06/12 12:08:14;;;;;;;3.40;1.80;;;;;;;;;;5027431;28;20025;-82
2021/06/12 12:10:59;;;;;;;5.70;2.28;;;;;;;;;;5032782;28;20076;-83
2021/06/12 12:13:45;;;;;;;5.32;2.40;;;;;;;;;;5015086;28;20388;-84
2021/06/12 12:16:31;;;;;;;3.97;2.47;;;;;;;;;;5032490;28;20095;-83
2021/06/12 12:19:16;;;;;;;2.50;1.95;;;;;;;;;;5010602;28;20072;-83
2021/06/12 12:22:02;;;;;;;4.65;2.15;;;;;;;;;;5049984;28;20153;-82
2021/06/12 12:24:47;;;;;;;2.75;1.92;;;;;;;;;;5055617;28;20027;-83
2021/06/12 12:27:33;;;;;;;5.47;2.30;;;;;;;;;;5057641;28;20020;-83
2021/06/12 12:30:24;;;;;;;4.93;2.10;;;;;;;;;;5045478;28;20099;-83
2021/06/12 12:33:11;;;;;;;3.55;2.30;;;;;;;;;;5064601;28;20038;-84
2021/06/12 12:36:02;;;;;;;6.57;1.80;;;;;;;;;;5058316;28;20032;-84
2021/06/12 12:38:54;;;;;;;3.55;1.80;;;;;;;;;;5040674;28;20028;-83
2021/06/12 12:41:39;;;;;;;6.78;2.92;;;;;;;;;;5059518;28;20108;-83
2021/06/12 12:44:28;;;;;;;3.60;1.95;;;;;;;;;;5048754;28;20762;-84
2021/06/12 12:47:17;;;;;;;3.22;1.80;;;;;;;;;;5060540;28;20480;-84
2021/06/12 12:50:02;;;;;;;;;;;;;;;;;;5048652;28;20070;-83
2021/06/12 12:53:02;;;;;;;5.30;2.38;;;;;;;;;;5055274;28;20359;-84
2021/06/12 12:55:55;;;;;;;5.22;2.20;;;;;;;;;;5059038;28;20024;-84
2021/06/12 12:58:41;;;;;;;5.32;2.10;;;;;;;;;;5062382;28;20469;-84
2021/06/12 13:01:26;;;;;;;3.15;1.80;;;;;;;;;;5063072;28;20046;-84
2021/06/12 13:04:12;;;;;;;1.77;1.58;;;;;;;;;;5038519;28;20031;-84
2021/06/12 13:07:06;;;;;;;5.20;1.92;;;;;;;;;;5056446;28;20016;-83
2021/06/12 13:09:58;;;;;;;2.90;1.95;;;;;;;;;;5052994;28;20024;-84
2021/06/12 13:12:53;;;;;;;2.67;1.90;;;;;;;;;;5055814;28;20024;-83
2021/06/12 13:15:39;;;;;;;6.63;1.98;;;;;;;;;;5055717;28;20017;-83
2021/06/12 13:18:32;;;;;;;3.08;2.35;;;;;;;;;;5043039;28;20024;-82
2021/06/12 13:21:17;;;;;;;3.53;1.65;;;;;;;;;;5049874;28;20083;-83
2021/06/12 13:35:09;;;;;;;2.53;1.45;;;;;;;;;;5098883;27;69757;-84
2021/06/12 13:38:16;;;;;;;2.22;1.55;;;;;;;;;;5083116;28;20028;-84
2021/06/12 13:41:18;;;;;;;3.17;1.20;;;;;;;;;;5085418;28;20119;-84
2021/06/12 13:44:13;;;;;;;2.00;1.40;;;;;;;;;;5067017;28;20036;-84
2021/06/12 13:46:58;;;;;;;2.33;1.48;;;;;;;;;;5050650;28;20037;-84
2021/06/12 13:50:03;;;;;;;5.22;1.25;;;;;;;;;;5027806;28;20036;-84
2021/06/12 13:52:52;;;;;;;1.90;1.20;;;;;;;;;;5060036;28;20051;-83
2021/06/12 13:55:56;;;;;;;2.85;1.30;;;;;;;;;;5089792;28;20077;-84
2021/06/12 13:58:40;;;;;;;4.72;1.67;;;;;;;;;;5097216;28;20769;-84
2021/06/12 14:01:28;;;;;;;4.70;2.30;;;;;;;;;;5079419;28;20082;-84
2021/06/12 14:04:17;;;;;;;4.83;3.80;;;;;;;;;;5079024;28;20111;-83
2021/06/12 14:10:27;;;;;;;270.33;225.98;;;;;;;;;;5087998;28;20060;-83
2021/06/12 14:13:13;;;;;;;15.63;8.75;;;;;;;;;;5083637;28;20028;-83
2021/06/12 14:15:59;;;;;;;42.47;35.35;;;;;;;;;;5068060;28;20430;-83
2021/06/12 14:18:44;;;;;;;12.32;9.07;;;;;;;;;;5068593;28;20033;-84
2021/06/12 14:21:29;;;;;;;10.80;7.13;;;;;;;;;;5066113;28;20033;-84
2021/06/12 14:24:15;;;;;;;3.30;1.58;;;;;;;;;;5062542;28;20029;-86
2021/06/12 14:27:00;;;;;;;6.10;3.05;;;;;;;;;;5068641;28;20426;-83
2021/06/12 14:29:47;;;;;;;4.85;2.55;;;;;;;;;;5065505;28;20391;-79
2021/06/12 14:32:32;;;;;;;2.95;2.03;;;;;;;;;;5067252;28;20184;-80
2021/06/12 14:35:17;;;;;;;2.17;1.42;;;;;;;;;;5069024;28;20145;-82
2021/06/12 14:38:03;;;;;;;5.13;2.42;;;;;;;;;;5063834;28;20135;-79
2021/06/12 14:40:48;;;;;;;8.00;1.88;;;;;;;;;;5068210;28;20032;-80
2021/06/12 14:43:34;;;;;;;4.80;1.38;;;;;;;;;;5064400;28;20024;-81
2021/06/12 14:46:19;;;;;;;2.70;1.58;;;;;;;;;;5056136;28;20033;-81
2021/06/12 14:49:04;;;;;;;4.78;2.38;;;;;;;;;;5051523;28;20025;-83
2021/06/12 14:51:50;;;;;;;5.03;1.60;;;;;;;;;;5057029;28;20105;-82
2021/06/12 14:54:35;;;;;;;5.18;2.00;;;;;;;;;;5050148;28;20140;-80
2021/06/12 14:57:20;;;;;;;3.28;1.77;;;;;;;;;;5052401;28;20511;-82
2021/06/12 15:00:07;;;;;;;4.25;1.65;;;;;;;;;;5049052;28;20112;-84
2021/06/12 15:02:52;;;;;;;2.40;1.52;;;;;;;;;;5051886;28;20426;-81
2021/06/12 15:05:37;;;;;;;1.10;1.00;;;;;;;;;;5051702;28;20653;-83
2021/06/12 15:08:22;;;;;;;2.80;1.30;;;;;;;;;;5051606;28;20546;-84
2021/06/12 15:11:08;;;;;;;1.75;1.20;;;;;;;;;;5054450;28;20028;-84
2021/06/12 15:13:53;;;;;;;4.50;1.40;;;;;;;;;;5053868;28;20029;-82
2021/06/12 15:16:40;;;;;;;6.25;1.73;;;;;;;;;;5051328;28;20025;-84
2021/06/12 15:19:25;;;;;;;2.13;1.60;;;;;;;;;;5047403;28;20294;-83
2021/06/12 15:22:11;;;;;;;5.20;1.35;;;;;;;;;;5052325;28;20024;-84
2021/06/12 15:24:56;;;;;;;2.00;1.30;;;;;;;;;;5058077;28;20040;-83
2021/06/12 15:27:41;;;;;;;1.40;1.30;;;;;;;;;;5054400;28;20501;-83
2021/06/12 15:30:26;;;;;;;1.60;1.20;;;;;;;;;;5056525;28;20094;-82
2021/06/12 15:33:12;;;;;;;2.22;1.50;;;;;;;;;;5056189;28;20021;-82
2021/06/12 15:35:57;;;;;;;2.75;1.40;;;;;;;;;;5047093;28;20069;-82
2021/06/12 15:38:42;;;;;;;2.85;0.93;;;;;;;;;;5051786;28;20090;-81
2021/06/12 15:41:27;;;;;;;1.50;1.13;;;;;;;;;;5071936;28;20024;-81
2021/06/12 15:44:13;;;;;;;2.08;1.02;;;;;;;;;;5036043;28;20057;-81
2021/06/12 15:46:58;;;;;;;1.77;0.80;;;;;;;;;;5064185;28;20134;-82
2021/06/12 15:49:44;;;;;;;1.85;1.48;;;;;;;;;;5050496;28;20031;-82
2021/06/12 15:52:29;;;;;;;12.25;1.40;;;;;;;;;;5054073;28;20467;-82
2021/06/12 15:55:16;;;;;;;3.80;1.20;;;;;;;;;;5051220;28;20072;-81
2021/06/12 15:58:02;;;;;;;1.15;0.90;;;;;;;;;;5050589;28;20021;-81
2021/06/12 16:00:47;;;;;;;2.22;1.27;;;;;;;;;;5050090;28;20407;-82
2021/06/12 16:03:32;;;;;;;2.08;1.40;;;;;;;;;;5052081;28;20444;-81
2021/06/12 16:06:17;;;;;;;3.17;1.70;;;;;;;;;;5052604;28;20335;-81
2021/06/12 16:09:03;;;;;;;1.27;1.10;;;;;;;;;;5051281;28;20495;-82
2021/06/12 16:11:48;;;;;;;2.72;0.90;;;;;;;;;;5054652;28;20104;-83
2021/06/12 16:14:33;;;;;;;1.38;0.90;;;;;;;;;;5055695;28;20029;-84
2021/06/12 16:17:18;;;;;;;3.20;1.92;;;;;;;;;;5049312;28;20099;-86
2021/06/12 16:20:04;;;;;;;4.70;2.05;;;;;;;;;;5050565;28;20033;-82
2021/06/12 16:22:50;;;;;;;2.47;0.95;;;;;;;;;;5040510;28;20471;-86
2021/06/12 16:25:35;;;;;;;1.80;0.70;;;;;;;;;;5054260;28;20017;-87
2021/06/12 16:28:20;;;;;;;4.68;1.02;;;;;;;;;;5056058;28;20033;-84
2021/06/12 16:31:05;;;;;;;1.75;1.40;;;;;;;;;;5052473;28;20087;-84
2021/06/12 16:33:51;;;;;;;2.70;1.35;;;;;;;;;;5060270;28;20052;-83
2021/06/12 16:36:37;;;;;;;7.88;4.53;;;;;;;;;;5048701;28;20158;-84
2021/06/12 16:39:22;;;;;;;6.70;3.90;;;;;;;;;;5056252;28;20345;-80
2021/06/12 16:42:07;;;;;;;3.22;1.90;;;;;;;;;;5059584;28;20032;-82
2021/06/12 16:44:52;;;;;;;2.90;1.92;;;;;;;;;;5052342;28;20040;-83
2021/06/12 16:47:38;;;;;;;8.18;4.32;;;;;;;;;;5049110;28;20036;-82